
Distance (Route):
Temperature : -2.2°C
Humidity : 0%
Pressure : 0hPa| Receiver | Frames | First received | Last received |
|---|---|---|---|
| LZ4TU-5 | 68 | 2026-09-04 11:48:14 | 2026-09-04 12:55:40 |
| Receiver | Date | Latitude | Longitude | Direction | Speed | Altitude | Climb | Temperature | Humidity | Pressure | Voltage | Killtimer | Uptime | BKT | XDATA |
|---|---|---|---|---|---|---|---|---|---|---|---|---|---|---|---|
| LZ4TU-5 | 2026-09-04 12:55:40 | 42.09588 | 23.32129 | 154° | 2km/h | 3880m | -15.6m/s | -2.2°C | 0% | 0hPa | 0V | 08:19:00 | 00:00:00 | 00:00:00 | |
| LZ4TU-5 | 2026-09-04 12:55:34 | 42.09587 | 23.32132 | 218° | 2km/h | 3960m | -14.7m/s | -2.6°C | 0% | 0hPa | 0V | 08:19:00 | 00:00:00 | 00:00:00 | |
| LZ4TU-5 | 2026-09-04 12:55:30 | 42.09588 | 23.32132 | 146° | 5km/h | 4019m | -15.3m/s | -3.1°C | 0% | 0hPa | 0V | 08:19:00 | 00:00:00 | 00:00:00 | |
| LZ4TU-5 | 2026-09-04 12:55:26 | 42.09596 | 23.32129 | 181° | 9km/h | 4080m | -13.9m/s | -3.0°C | 0% | 0hPa | 0V | 00:00:00 | 00:00:00 | 00:00:00 | |
| LZ4TU-5 | 2026-09-04 12:55:22 | 42.09601 | 23.32121 | 228° | 22km/h | 4137m | -9.4m/s | -3.4°C | 0% | 0hPa | 0V | 00:00:00 | 00:00:00 | 00:00:00 | |
| LZ4TU-5 | 2026-09-04 12:55:10 | 42.09670 | 23.32150 | 204° | 24km/h | 4310m | -19.1m/s | -5.7°C | 0% | 0hPa | 0V | 00:00:00 | 00:00:00 | 00:00:00 | |
| LZ4TU-5 | 2026-09-04 12:55:06 | 42.09694 | 23.32164 | 206° | 31km/h | 4384m | -18.8m/s | -5.9°C | 0% | 0hPa | 0V | 00:00:00 | 00:00:00 | 00:00:00 | |
| LZ4TU-5 | 2026-09-04 12:55:02 | 42.09724 | 23.32173 | 179° | 29km/h | 4456m | -17.7m/s | -6.9°C | 0% | 0hPa | 0V | 00:00:00 | 00:00:00 | 00:00:00 | |
| LZ4TU-5 | 2026-09-04 12:54:57 | 42.09771 | 23.32173 | 182° | 47km/h | 4549m | -19.6m/s | -7.8°C | 97.1% | 0hPa | 0V | 00:00:00 | 00:00:00 | 00:00:00 | |
| LZ4TU-5 | 2026-09-04 12:54:52 | 42.09833 | 23.32178 | 184° | 51km/h | 4646m | -21.0m/s | -6.3°C | 24.3% | 0hPa | 0V | 00:00:00 | 00:00:00 | 00:00:00 | |
| LZ4TU-5 | 2026-09-04 12:53:03 | 42.11740 | 23.32565 | 201° | 99km/h | 6902m | -22.0m/s | -15.9°C | 33.2% | 0hPa | 0V | 00:00:00 | 00:00:00 | 00:00:00 | |
| LZ4TU-5 | 2026-09-04 12:50:58 | 42.14950 | 23.33942 | 201° | 122km/h | 9727m | -22.2m/s | -39.2°C | 37.5% | 0hPa | 0V | 00:00:00 | 00:00:00 | 00:00:00 | |
| LZ4TU-5 | 2026-09-04 12:49:14 | 42.18375 | 23.35320 | 194° | 104km/h | 12840m | -35.1m/s | -58.3°C | 5.5% | 0hPa | 0V | 00:00:00 | 00:00:00 | 00:00:00 | |
| LZ4TU-5 | 2026-09-04 12:49:10 | 42.18466 | 23.35351 | 196° | 84km/h | 12982m | -35.3m/s | -57.1°C | 3.9% | 0hPa | 0V | 00:00:00 | 00:00:00 | 00:00:00 | |
| LZ4TU-5 | 2026-09-04 12:47:13 | 42.19064 | 23.34527 | 77° | 26km/h | 17528m | -45.3m/s | -58.7°C | 1.8% | 0hPa | 0V | 00:00:00 | 00:00:00 | 00:00:00 | |
| LZ4TU-5 | 2026-09-04 12:47:09 | 42.19056 | 23.34489 | 80° | 29km/h | 17710m | -45.1m/s | -59.0°C | 1.9% | 0hPa | 0V | 00:00:00 | 00:00:00 | 00:00:00 | |
| LZ4TU-5 | 2026-09-04 12:45:12 | 42.18959 | 23.34194 | 347° | 4km/h | 24297m | -66.4m/s | -50.5°C | 1.1% | 0hPa | 0V | 00:00:00 | 00:00:00 | 00:00:00 | |
| LZ4TU-5 | 2026-09-04 12:45:08 | 42.18956 | 23.34194 | 345° | 4km/h | 24559m | -66.2m/s | -50.9°C | 1.2% | 0hPa | 0V | 00:00:00 | 00:00:00 | 00:00:00 | |
| LZ4TU-5 | 2026-09-04 12:43:15 | 42.18905 | 23.34415 | 345° | 9km/h | 26079m | 6.9m/s | -47.8°C | 0.9% | 0hPa | 0V | 00:00:00 | 00:00:00 | 00:00:00 | |
| LZ4TU-5 | 2026-09-04 12:43:11 | 42.18895 | 23.34422 | 343° | 13km/h | 26053m | 4.2m/s | -47.7°C | 0.9% | 0hPa | 0V | 00:00:00 | 00:00:00 | 00:00:00 | |
| LZ4TU-5 | 2026-09-04 12:40:32 | 42.18709 | 23.34411 | 101° | 11km/h | 25079m | 5.5m/s | -51.1°C | 1.1% | 0hPa | 0V | 00:00:00 | 00:00:00 | 00:00:00 | |
| LZ4TU-5 | 2026-09-04 12:40:27 | 42.18715 | 23.34399 | 147° | 13km/h | 25054m | 4.5m/s | -51.0°C | 1.0% | 0hPa | 0V | 00:00:00 | 00:00:00 | 00:00:00 | |
| LZ4TU-5 | 2026-09-04 12:38:21 | 42.18549 | 23.34493 | 278° | 7km/h | 24281m | 5.9m/s | -51.4°C | 1.0% | 0hPa | 0V | 00:00:00 | 00:00:00 | 00:00:00 | |
| LZ4TU-5 | 2026-09-04 12:36:26 | 42.18534 | 23.34655 | 276° | 11km/h | 23595m | 5.2m/s | -52.7°C | 1.1% | 0hPa | 0V | 00:00:00 | 00:00:00 | 00:00:00 | |
| LZ4TU-5 | 2026-09-04 12:36:21 | 42.18536 | 23.34671 | 279° | 11km/h | 23571m | 5.5m/s | -52.6°C | 1.1% | 0hPa | 0V | 00:00:00 | 00:00:00 | 00:00:00 | |
| LZ4TU-5 | 2026-09-04 12:34:15 | 42.18163 | 23.34751 | 346° | 11km/h | 22816m | 4.1m/s | -52.2°C | 1.1% | 0hPa | 0V | 00:00:00 | 00:00:00 | 00:00:00 | |
| LZ4TU-5 | 2026-09-04 12:34:11 | 42.18158 | 23.34751 | 270° | 2km/h | 22793m | 7.3m/s | -52.2°C | 1.1% | 0hPa | 0V | 00:00:00 | 00:00:00 | 00:00:00 | |
| LZ4TU-5 | 2026-09-04 12:32:06 | 42.18119 | 23.34612 | 40° | 15km/h | 22050m | 5.0m/s | -55.3°C | 1.3% | 0hPa | 0V | 00:00:00 | 00:00:00 | 00:00:00 | |
| LZ4TU-5 | 2026-09-04 12:32:02 | 42.18108 | 23.34604 | 24° | 11km/h | 22026m | 6.1m/s | -55.1°C | 1.3% | 0hPa | 0V | 00:00:00 | 00:00:00 | 00:00:00 | |
| LZ4TU-5 | 2026-09-04 12:30:05 | 42.17934 | 23.34731 | 327° | 4km/h | 21356m | 3.9m/s | -53.5°C | 1.2% | 0hPa | 0V | 00:00:00 | 00:00:00 | 00:00:00 | |
| LZ4TU-5 | 2026-09-04 12:30:00 | 42.17928 | 23.34731 | 13° | 9km/h | 21333m | 8.1m/s | -53.8°C | 1.2% | 0hPa | 0V | 00:00:00 | 00:00:00 | 00:00:00 | |
| LZ4TU-5 | 2026-09-04 12:28:06 | 42.17923 | 23.34401 | 57° | 7km/h | 20691m | 4.7m/s | -55.8°C | 1.4% | 0hPa | 0V | 00:00:00 | 00:00:00 | 00:00:00 | |
| LZ4TU-5 | 2026-09-04 12:28:02 | 42.17915 | 23.34392 | 30° | 15km/h | 20667m | 6.3m/s | -55.7°C | 1.4% | 0hPa | 0V | 00:00:00 | 00:00:00 | 00:00:00 | |
| LZ4TU-5 | 2026-09-04 12:25:53 | 42.17556 | 23.34116 | 5° | 15km/h | 19939m | 5.2m/s | -55.1°C | 1.3% | 0hPa | 0V | 00:00:00 | 00:00:00 | 00:00:00 | |
| LZ4TU-5 | 2026-09-04 12:23:49 | 42.17654 | 23.33779 | 90° | 16km/h | 19259m | 7.0m/s | -57.3°C | 1.5% | 0hPa | 0V | 00:00:00 | 00:00:00 | 00:00:00 | |
| LZ4TU-5 | 2026-09-04 12:23:44 | 42.17653 | 23.33755 | 85° | 18km/h | 19238m | 4.7m/s | -57.1°C | 1.5% | 0hPa | 0V | 00:00:00 | 00:00:00 | 00:00:00 | |
| LZ4TU-5 | 2026-09-04 12:21:38 | 42.17389 | 23.33003 | 69° | 33km/h | 18550m | 5.7m/s | -59.1°C | 1.8% | 0hPa | 0V | 00:00:00 | 00:00:00 | 00:00:00 | |
| LZ4TU-5 | 2026-09-04 12:21:34 | 42.17376 | 23.32962 | 70° | 33km/h | 18528m | 6.3m/s | -58.9°C | 1.8% | 0hPa | 0V | 00:00:00 | 00:00:00 | 00:00:00 | |
| LZ4TU-5 | 2026-09-04 12:19:40 | 42.17434 | 23.32059 | 105° | 26km/h | 17905m | 4.5m/s | -56.9°C | 1.6% | 0hPa | 0V | 00:00:00 | 00:00:00 | 00:00:00 | |
| LZ4TU-5 | 2026-09-04 12:19:35 | 42.17443 | 23.32018 | 104° | 26km/h | 17879m | 5.7m/s | -57.1°C | 1.6% | 0hPa | 0V | 00:00:00 | 00:00:00 | 00:00:00 | |
| LZ4TU-5 | 2026-09-04 12:17:44 | 42.17203 | 23.31077 | 111° | 26km/h | 17257m | 6.8m/s | -58.0°C | 1.8% | 0hPa | 0V | 00:00:00 | 00:00:00 | 00:00:00 | |
| LZ4TU-5 | 2026-09-04 12:15:48 | 42.17360 | 23.29947 | 99° | 29km/h | 16600m | 6.5m/s | -57.0°C | 1.8% | 0hPa | 0V | 00:00:00 | 00:00:00 | 00:00:00 | |
| LZ4TU-5 | 2026-09-04 12:15:43 | 42.17362 | 23.29910 | 93° | 27km/h | 16577m | 6.9m/s | -57.0°C | 1.8% | 0hPa | 0V | 00:00:00 | 00:00:00 | 00:00:00 | |
| LZ4TU-5 | 2026-09-04 12:13:43 | 42.17220 | 23.29171 | 114° | 20km/h | 15962m | 4.0m/s | -55.8°C | 2.0% | 0hPa | 0V | 00:00:00 | 00:00:00 | 00:00:00 | |
| LZ4TU-5 | 2026-09-04 12:13:39 | 42.17231 | 23.29140 | 111° | 22km/h | 15938m | 5.6m/s | -55.7°C | 2.1% | 0hPa | 0V | 00:00:00 | 00:00:00 | 00:00:00 | |
| LZ4TU-5 | 2026-09-04 12:11:29 | 42.17672 | 23.27790 | 116° | 29km/h | 15205m | 4.6m/s | -54.7°C | 2.1% | 0hPa | 0V | 00:00:00 | 00:00:00 | 00:00:00 | |
| LZ4TU-5 | 2026-09-04 12:09:33 | 42.18382 | 23.27017 | 136° | 58km/h | 14573m | 4.2m/s | -56.4°C | 2.4% | 0hPa | 0V | 00:00:00 | 00:00:00 | 00:00:00 | |
| LZ4TU-5 | 2026-09-04 12:09:28 | 42.18439 | 23.26940 | 136° | 68km/h | 14547m | 5.3m/s | -56.5°C | 2.4% | 0hPa | 0V | 00:00:00 | 00:00:00 | 00:00:00 | |
| LZ4TU-5 | 2026-09-04 12:07:26 | 42.19357 | 23.25294 | 144° | 31km/h | 13919m | 7.6m/s | -56.8°C | 2.7% | 0hPa | 0V | 00:00:00 | 00:00:00 | 00:00:00 | |
| LZ4TU-5 | 2026-09-04 12:07:22 | 42.19380 | 23.25274 | 149° | 26km/h | 13896m | 6.7m/s | -56.6°C | 2.6% | 0hPa | 0V | 00:00:00 | 00:00:00 | 00:00:00 | |
| LZ4TU-5 | 2026-09-04 12:05:12 | 42.20605 | 23.25126 | 179° | 75km/h | 13122m | 4.4m/s | -56.3°C | 5.1% | 0hPa | 0V | 00:00:00 | 00:00:00 | 00:00:00 | |
| LZ4TU-5 | 2026-09-04 12:05:07 | 42.20681 | 23.25123 | 179° | 73km/h | 13103m | 4.5m/s | -56.2°C | 5.2% | 0hPa | 0V | 00:00:00 | 00:00:00 | 00:00:00 | |
| LZ4TU-5 | 2026-09-04 12:03:20 | 42.23443 | 23.25506 | 186° | 130km/h | 12487m | 4.6m/s | -59.7°C | 49.1% | 0hPa | 0V | 00:00:00 | 00:00:00 | 00:00:00 | |
| LZ4TU-5 | 2026-09-04 12:03:16 | 42.23573 | 23.25518 | 185° | 124km/h | 12467m | 4.4m/s | -59.7°C | 49.1% | 0hPa | 0V | 00:00:00 | 00:00:00 | 00:00:00 | |
| LZ4TU-5 | 2026-09-04 12:01:31 | 42.27037 | 23.26668 | 196° | 144km/h | 11922m | 8.1m/s | -57.3°C | 39.7% | 0hPa | 0V | 00:00:00 | 00:00:00 | 00:00:00 | |
| LZ4TU-5 | 2026-09-04 12:01:27 | 42.27160 | 23.26729 | 202° | 131km/h | 11889m | 6.2m/s | -57.1°C | 37.8% | 0hPa | 0V | 00:00:00 | 00:00:00 | 00:00:00 | |
| LZ4TU-5 | 2026-09-04 11:59:38 | 42.31368 | 23.28086 | 194° | 155km/h | 11325m | 4.6m/s | -52.0°C | 25.7% | 0hPa | 0V | 00:00:00 | 00:00:00 | 00:00:00 | |
| LZ4TU-5 | 2026-09-04 11:59:34 | 42.31522 | 23.28137 | 196° | 155km/h | 11306m | 3.3m/s | -51.9°C | 0% | 0hPa | 0V | 00:00:00 | 00:00:00 | 00:00:00 | |
| LZ4TU-5 | 2026-09-04 11:57:43 | 42.35634 | 23.29793 | 201° | 150km/h | 10629m | 5.3m/s | -46.3°C | 0% | 0hPa | 0V | 00:00:00 | 00:00:00 | 00:00:00 | |
| LZ4TU-5 | 2026-09-04 11:57:38 | 42.35780 | 23.29859 | 198° | 155km/h | 10603m | 6.9m/s | -46.1°C | 0% | 0hPa | 0V | 00:00:00 | 00:00:00 | 00:00:00 | |
| LZ4TU-5 | 2026-09-04 11:55:53 | 42.39484 | 23.31540 | 202° | 146km/h | 9992m | 5.3m/s | -41.7°C | 0% | 0hPa | 0V | 00:00:00 | 00:00:00 | 00:00:00 | |
| LZ4TU-5 | 2026-09-04 11:55:48 | 42.39623 | 23.31610 | 201° | 142km/h | 9972m | 4.8m/s | -41.6°C | 0% | 0hPa | 0V | 00:00:00 | 00:00:00 | 00:00:00 | |
| LZ4TU-5 | 2026-09-04 11:53:58 | 42.43200 | 23.33451 | 202° | 130km/h | 9385m | 4.5m/s | -36.4°C | 0% | 0hPa | 0V | 00:00:00 | 00:00:00 | 00:00:00 | |
| LZ4TU-5 | 2026-09-04 11:53:54 | 42.43317 | 23.33514 | 202° | 128km/h | 9365m | 5.4m/s | -36.2°C | 0% | 0hPa | 0V | 00:00:00 | 00:00:00 | 00:00:00 | |
| LZ4TU-5 | 2026-09-04 11:51:59 | 42.46694 | 23.34951 | 193° | 124km/h | 8800m | 6.0m/s | -31.9°C | 0% | 0hPa | 0V | 00:00:00 | 00:00:00 | 00:00:00 | |
| LZ4TU-5 | 2026-09-04 11:50:04 | 42.50221 | 23.35936 | 192° | 124km/h | 8154m | 6.8m/s | -26.7°C | 0% | 0hPa | 0V | 00:00:00 | 00:00:00 | 00:00:00 | |
| LZ4TU-5 | 2026-09-04 11:49:59 | 42.50344 | 23.35965 | 192° | 120km/h | 8130m | 6.0m/s | -26.5°C | 0% | 0hPa | 0V | 00:00:00 | 00:00:00 | 00:00:00 | |
| LZ4TU-5 | 2026-09-04 11:48:14 | 42.53219 | 23.36802 | 192° | 100km/h | 7387m | 5.1m/s | -20.5°C | 0% | 0hPa | 0V | 00:00:00 | 00:00:00 | 00:00:00 |